Time;durP1;ratioP1;P1;durP2;ratioP2;P2;SDS_P1;SDS_P2;PMS_P1;PMS_P2;Temp;Humidity;BMP_temperature;BMP_pressure;BME280_temperature;BME280_humidity;BME280_pressure;Samples;Min_cycle;Max_cycle;Signal;HPM_P1;HPM_P2
2021/12/15 00:01:37;;;;;;;79.22;38.03;;;10.00;99.90;;;;;;4998120;28;20438;-72
2021/12/15 00:04:03;;;;;;;69.35;35.90;;;10.00;99.90;;;;;;4997742;28;20037;-72
2021/12/15 00:06:29;;;;;;;69.90;36.40;;;10.00;99.90;;;;;;4997764;28;20033;-72
2021/12/15 00:08:57;;;;;;;67.68;36.13;;;10.10;99.90;;;;;;4981565;28;20119;-72
2021/12/15 00:11:32;;;;;;;69.15;35.38;;;10.00;99.90;;;;;;4981860;28;20042;-72
2021/12/15 00:13:58;;;;;;;67.22;35.80;;;10.10;99.90;;;;;;4997971;28;20124;-72
2021/12/15 00:16:24;;;;;;;57.78;34.25;;;10.10;99.90;;;;;;4997536;28;20499;-72
2021/12/15 00:18:49;;;;;;;73.45;36.75;;;10.10;99.90;;;;;;4997763;28;20037;-72
2021/12/15 00:21:19;;;;;;;71.85;36.42;;;10.10;99.90;;;;;;4997769;28;20422;-72
2021/12/15 00:23:46;;;;;;;74.10;36.70;;;10.10;99.90;;;;;;4997653;28;20180;-72
2021/12/15 00:26:12;;;;;;;67.97;35.70;;;10.00;99.90;;;;;;4981330;28;20142;-72
2021/12/15 00:28:39;;;;;;;61.05;35.08;;;10.10;99.90;;;;;;4997937;28;20127;-72
2021/12/15 00:31:05;;;;;;;64.80;34.58;;;10.10;99.90;;;;;;4997322;28;20120;-72
2021/12/15 00:33:33;;;;;;;69.60;35.83;;;10.10;99.90;;;;;;4997264;28;20529;-72
2021/12/15 00:35:58;;;;;;;62.85;34.10;;;10.10;99.90;;;;;;4996888;28;20498;-72
2021/12/15 00:38:24;;;;;;;64.22;35.40;;;10.10;99.90;;;;;;4997525;28;20104;-72
2021/12/15 00:40:51;;;;;;;68.57;35.65;;;10.10;99.90;;;;;;4997173;28;20047;-72
2021/12/15 00:43:19;;;;;;;67.15;34.65;;;10.10;99.90;;;;;;4997178;28;20042;-72
2021/12/15 00:45:45;;;;;;;57.25;33.65;;;10.10;99.90;;;;;;4997256;28;20064;-72
2021/12/15 00:48:12;;;;;;;61.92;34.35;;;10.10;99.90;;;;;;4997022;28;20042;-72
2021/12/15 00:50:39;;;;;;;68.22;35.38;;;10.10;99.90;;;;;;4996948;28;20084;-72
2021/12/15 00:53:05;;;;;;;73.38;35.70;;;10.10;99.90;;;;;;4996912;28;20053;-72
2021/12/15 00:55:31;;;;;;;66.72;35.00;;;10.10;99.90;;;;;;4996814;28;20045;-72
2021/12/15 00:58:00;;;;;;;66.70;33.97;;;10.10;99.90;;;;;;4996756;28;20042;-72
2021/12/15 01:00:37;;;;;;;61.75;35.13;;;10.10;99.90;;;;;;4997033;28;20081;-72
2021/12/15 01:03:04;;;;;;;65.88;33.63;;;10.10;99.90;;;;;;4996771;28;20402;-72
2021/12/15 01:05:35;;;;;;;68.10;35.38;;;10.10;99.90;;;;;;4996592;28;20069;-72
2021/12/15 01:08:03;;;;;;;62.40;34.45;;;10.10;99.90;;;;;;4996639;28;20041;-72
2021/12/15 01:10:43;;;;;;;65.35;34.67;;;10.10;99.90;;;;;;4996554;28;20046;-72
2021/12/15 01:21:21;;;;;;;63.67;34.20;;;10.10;99.90;;;;;;4996405;28;20042;-72
2021/12/15 01:23:47;;;;;;;69.28;35.80;;;10.10;99.90;;;;;;4996295;28;20045;-72
2021/12/15 01:26:14;;;;;;;67.50;36.03;;;10.10;99.90;;;;;;4996281;28;20049;-72
2021/12/15 01:28:41;;;;;;;63.47;33.53;;;10.10;99.90;;;;;;4996544;28;20456;-72
2021/12/15 01:31:08;;;;;;;65.50;34.30;;;10.10;99.90;;;;;;4996499;28;20045;-72
2021/12/15 01:33:34;;;;;;;66.25;33.75;;;10.10;99.90;;;;;;4996162;28;20049;-72
2021/12/15 01:36:03;;;;;;;56.92;32.05;;;10.10;99.90;;;;;;4995920;28;20038;-72
2021/12/15 01:38:31;;;;;;;67.97;33.30;;;10.20;99.90;;;;;;4996114;28;20046;-72
2021/12/15 01:40:58;;;;;;;64.05;34.90;;;10.10;99.90;;;;;;4996012;28;20414;-72
2021/12/15 01:43:50;;;;;;;62.88;33.83;;;10.10;99.90;;;;;;4980224;28;20033;-72
2021/12/15 01:49:16;;;;;;;65.07;34.10;;;10.10;99.90;;;;;;4995681;28;20387;-72
2021/12/15 01:51:42;;;;;;;61.63;34.25;;;10.20;99.90;;;;;;4996208;28;20060;-72
2021/12/15 01:54:09;;;;;;;66.90;35.35;;;10.20;99.90;;;;;;4996127;28;20406;-72
2021/12/15 01:56:36;;;;;;;75.60;35.15;;;10.10;99.90;;;;;;4995820;28;20557;-72
2021/12/15 01:59:04;;;;;;;67.07;34.83;;;10.10;99.90;;;;;;4995876;28;20042;-72
2021/12/15 02:01:30;;;;;;;65.72;34.63;;;10.10;99.90;;;;;;4996012;28;20124;-72
2021/12/15 02:03:57;;;;;;;66.10;34.97;;;10.10;99.90;;;;;;4995953;28;20517;-73
2021/12/15 02:06:22;;;;;;;66.97;35.50;;;10.10;99.90;;;;;;4996017;28;20147;-72
2021/12/15 02:08:48;;;;;;;70.90;35.50;;;10.20;99.90;;;;;;4995712;28;20466;-72
2021/12/15 02:11:15;;;;;;;62.35;34.95;;;10.20;99.90;;;;;;4996015;28;20050;-72
2021/12/15 02:13:41;;;;;;;71.85;35.78;;;10.20;99.90;;;;;;4995711;28;20080;-72
2021/12/15 02:16:07;;;;;;;69.07;36.72;;;10.20;99.90;;;;;;4979287;28;20062;-73
2021/12/15 02:18:37;;;;;;;68.43;35.88;;;10.20;99.90;;;;;;4995652;28;20048;-73
2021/12/15 02:21:11;;;;;;;73.72;37.50;;;10.20;99.90;;;;;;4995926;28;20038;-73
2021/12/15 02:23:43;;;;;;;67.22;35.47;;;10.20;99.90;;;;;;4995830;28;20034;-73
2021/12/15 02:26:25;;;;;;;75.70;37.40;;;10.20;99.90;;;;;;4995803;28;20419;-73
2021/12/15 02:28:54;;;;;;;66.72;36.85;;;10.20;99.90;;;;;;4995599;28;20117;-72
2021/12/15 02:34:56;;;;;;;74.13;35.95;;;10.10;99.90;;;;;;4995649;28;20466;-72
2021/12/15 02:39:32;;;;;;;74.88;36.30;;;10.10;99.90;;;;;;4995666;28;20100;-72
2021/12/15 02:41:58;;;;;;;78.18;36.92;;;10.10;99.90;;;;;;4995356;28;20042;-72
2021/12/15 02:44:24;;;;;;;65.82;34.80;;;10.10;99.90;;;;;;4995605;28;20045;-72
2021/12/15 02:46:52;;;;;;;73.10;36.10;;;10.10;99.90;;;;;;4995557;28;20085;-72
2021/12/15 02:49:22;;;;;;;69.32;36.35;;;10.10;99.90;;;;;;4995352;28;20045;-72
2021/12/15 02:51:50;;;;;;;72.82;35.58;;;10.10;99.90;;;;;;4995281;28;20042;-72
2021/12/15 02:54:17;;;;;;;71.97;34.95;;;10.10;99.90;;;;;;4995475;28;20503;-73
2021/12/15 02:56:45;;;;;;;77.55;36.92;;;10.10;99.90;;;;;;4995188;28;20077;-73
2021/12/15 02:59:14;;;;;;;80.50;37.80;;;10.20;99.90;;;;;;4996934;28;20053;-73
2021/12/15 03:01:54;;;;;;;72.30;35.38;;;10.10;99.90;;;;;;4999044;28;20042;-73
2021/12/15 03:06:54;;;;;;;75.78;36.97;;;10.10;99.90;;;;;;4999430;28;20128;-73
2021/12/15 03:15:18;;;;;;;83.95;37.38;;;10.10;99.90;;;;;;4998867;28;20057;-73
2021/12/15 03:17:35;;;;;;;92.15;39.00;;;10.10;99.90;;;;;;4998582;28;20049;-72
2021/12/15 03:20:01;;;;;;;84.15;39.08;;;10.10;99.90;;;;;;4982467;28;20125;-72
2021/12/15 03:22:27;;;;;;;90.13;40.13;;;10.10;99.90;;;;;;4998563;28;20121;-72
2021/12/15 03:24:53;;;;;;;87.97;39.03;;;10.10;99.90;;;;;;4998793;28;20065;-72
2021/12/15 03:27:25;;;;;;;83.63;39.00;;;10.10;99.90;;;;;;4998523;28;20046;-72
2021/12/15 03:37:51;;;;;;;87.85;39.17;;;10.10;99.90;;;;;;4998291;28;20046;-72
2021/12/15 03:40:24;;;;;;;83.05;38.92;;;10.10;99.90;;;;;;4998257;28;20407;-72
2021/12/15 03:42:55;;;;;;;81.95;38.10;;;10.10;99.90;;;;;;4998353;28;20069;-72
2021/12/15 03:45:28;;;;;;;90.15;39.85;;;10.10;99.90;;;;;;4998145;28;20383;-72
2021/12/15 03:47:58;;;;;;;85.50;39.78;;;10.10;99.90;;;;;;4998483;28;20037;-72
2021/12/15 03:50:25;;;;;;;82.60;39.50;;;10.00;99.90;;;;;;4998173;28;20057;-72
2021/12/15 03:52:51;;;;;;;80.53;39.35;;;10.10;99.90;;;;;;4998499;28;20061;-72
2021/12/15 03:55:21;;;;;;;85.80;41.13;;;10.10;99.90;;;;;;4997994;28;20479;-72
2021/12/15 03:57:47;;;;;;;71.65;39.42;;;10.10;99.90;;;;;;4997924;28;20048;-72
2021/12/15 04:00:14;;;;;;;78.82;38.78;;;10.10;99.90;;;;;;4997933;28;20044;-72
2021/12/15 04:02:42;;;;;;;80.38;40.35;;;10.10;99.90;;;;;;4981879;28;20559;-72
2021/12/15 04:05:11;;;;;;;84.90;41.08;;;10.10;99.90;;;;;;4997902;28;20526;-72
2021/12/15 04:07:37;;;;;;;86.28;41.58;;;10.10;99.90;;;;;;4997687;28;20048;-72
2021/12/15 04:10:10;;;;;;;82.03;42.28;;;10.10;99.90;;;;;;4997591;28;20078;-72
2021/12/15 04:12:36;;;;;;;85.28;43.17;;;10.00;99.90;;;;;;4997498;28;20080;-72
2021/12/15 04:15:52;;;;;;;85.03;43.20;;;10.00;99.90;;;;;;4997711;28;20037;-72
2021/12/15 04:18:00;;;;;;;76.20;41.67;;;10.00;99.90;;;;;;4989607;28;20053;-72
2021/12/15 04:20:30;;;;;;;81.30;43.15;;;10.00;99.90;;;;;;4998159;28;20112;-72
2021/12/15 04:22:56;;;;;;;80.15;42.38;;;10.00;99.90;;;;;;4997492;28;20049;-72
2021/12/15 04:25:35;;;;;;;76.78;43.00;;;10.00;99.90;;;;;;4997412;28;20046;-72
2021/12/15 04:28:15;;;;;;;83.50;43.55;;;10.00;99.90;;;;;;4997407;28;20041;-72
2021/12/15 04:30:45;;;;;;;89.45;44.38;;;10.00;99.90;;;;;;4997342;28;20045;-72
2021/12/15 04:33:18;;;;;;;81.50;43.55;;;10.00;99.90;;;;;;4997354;28;20038;-72
2021/12/15 04:35:44;;;;;;;;;;;10.00;99.90;;;;;;4997642;28;20041;-72
2021/12/15 04:38:11;;;;;;;83.55;43.00;;;10.00;99.90;;;;;;4997125;28;19922;-72
2021/12/15 04:40:37;;;;;;;88.97;45.08;;;10.00;99.90;;;;;;4997357;28;20046;-72
2021/12/15 04:43:03;;;;;;;86.72;44.55;;;10.00;99.90;;;;;;4997054;28;20030;-72
2021/12/15 04:45:30;;;;;;;82.65;44.60;;;10.00;99.90;;;;;;4997229;28;20494;-72
2021/12/15 04:47:57;;;;;;;79.25;44.60;;;10.00;99.90;;;;;;4997090;28;20049;-72
2021/12/15 04:50:25;;;;;;;81.57;42.72;;;10.00;99.90;;;;;;4996952;28;20490;-72
2021/12/15 04:52:52;;;;;;;78.88;43.92;;;10.00;99.90;;;;;;4997252;28;20045;-72
2021/12/15 04:55:20;;;;;;;84.10;44.42;;;10.00;99.90;;;;;;4997048;28;20529;-72
2021/12/15 04:57:46;;;;;;;90.10;45.55;;;10.00;99.90;;;;;;4996833;28;20117;-72
2021/12/15 05:00:21;;;;;;;88.28;46.40;;;10.00;99.90;;;;;;4997881;28;20553;-72
2021/12/15 05:02:47;;;;;;;92.43;45.85;;;10.00;99.90;;;;;;4996790;28;20037;-72
2021/12/15 05:05:13;;;;;;;91.75;44.13;;;10.00;99.90;;;;;;4996830;28;20041;-72
2021/12/15 05:07:39;;;;;;;89.25;46.63;;;10.00;99.90;;;;;;4996643;28;20048;-72
2021/12/15 05:10:08;;;;;;;96.97;46.65;;;10.00;99.90;;;;;;4996609;28;20041;-72
2021/12/15 05:12:34;;;;;;;94.28;47.10;;;10.00;99.90;;;;;;4996563;28;20042;-72
2021/12/15 05:15:00;;;;;;;87.68;45.38;;;10.00;99.90;;;;;;4996607;28;20104;-72
2021/12/15 05:17:26;;;;;;;92.10;47.33;;;10.00;99.90;;;;;;4996439;28;20081;-72
2021/12/15 05:19:54;;;;;;;82.32;46.95;;;10.00;99.90;;;;;;4996495;28;20117;-72
2021/12/15 05:22:20;;;;;;;94.82;47.17;;;10.00;99.90;;;;;;4995597;28;20034;-72
2021/12/15 05:24:46;;;;;;;91.55;47.47;;;10.00;99.90;;;;;;4996601;28;20048;-72
2021/12/15 05:27:14;;;;;;;93.47;47.92;;;10.00;99.90;;;;;;4996266;28;20096;-72
2021/12/15 05:29:41;;;;;;;95.28;47.08;;;9.90;99.90;;;;;;4996199;28;20050;-72
2021/12/15 05:32:09;;;;;;;86.72;47.33;;;10.00;99.90;;;;;;4996230;28;20037;-72
2021/12/15 05:34:36;;;;;;;86.85;47.97;;;10.00;99.90;;;;;;4980210;28;20048;-72
2021/12/15 05:37:03;;;;;;;88.28;46.42;;;10.00;99.90;;;;;;4996288;28;20048;-72
2021/12/15 05:39:29;;;;;;;94.95;48.78;;;10.00;99.90;;;;;;4996216;28;20084;-72
2021/12/15 05:41:54;;;;;;;92.82;47.42;;;10.00;99.90;;;;;;4996363;28;20077;-72
2021/12/15 05:44:21;;;;;;;90.28;48.42;;;10.00;99.90;;;;;;4995956;28;20414;-72
2021/12/15 05:46:47;;;;;;;80.03;44.83;;;10.00;99.90;;;;;;4996234;28;20137;-72
2021/12/15 05:49:13;;;;;;;87.30;48.20;;;10.00;99.90;;;;;;4996280;28;20046;-72
2021/12/15 05:51:39;;;;;;;92.00;48.00;;;10.00;99.90;;;;;;4995881;28;20560;-72
2021/12/15 05:54:06;;;;;;;85.60;46.03;;;10.00;99.90;;;;;;4995810;28;20045;-72
2021/12/15 05:56:32;;;;;;;86.32;46.97;;;10.00;99.90;;;;;;4995876;28;20487;-72
2021/12/15 05:58:58;;;;;;;80.63;46.55;;;10.00;99.90;;;;;;4996126;28;20108;-72
2021/12/15 06:01:24;;;;;;;84.18;46.17;;;10.00;99.90;;;;;;4996135;28;20504;-72
2021/12/15 06:03:50;;;;;;;84.35;47.42;;;10.00;99.90;;;;;;4995694;28;20042;-72
2021/12/15 06:06:15;;;;;;;90.55;48.95;;;10.00;99.90;;;;;;4996062;28;20054;-72
2021/12/15 06:08:41;;;;;;;80.03;45.95;;;9.90;99.90;;;;;;4995809;28;20410;-72
2021/12/15 06:11:07;;;;;;;83.72;47.80;;;9.90;99.90;;;;;;4995803;28;20131;-72
2021/12/15 06:13:32;;;;;;;92.05;48.78;;;10.00;99.90;;;;;;4995776;28;20088;-72
2021/12/15 06:15:59;;;;;;;87.38;47.13;;;9.90;99.90;;;;;;4995520;28;20524;-72
2021/12/15 06:18:25;;;;;;;89.85;49.03;;;10.00;99.90;;;;;;4995912;28;20044;-72
2021/12/15 06:20:53;;;;;;;78.97;45.70;;;9.90;99.90;;;;;;4995618;28;20454;-72
2021/12/15 06:23:20;;;;;;;86.18;50.05;;;9.90;99.90;;;;;;4995833;28;20073;-72
2021/12/15 06:25:59;;;;;;;93.95;48.58;;;10.00;99.90;;;;;;4995532;28;20568;-72
2021/12/15 06:28:28;;;;;;;85.10;47.35;;;9.90;99.90;;;;;;4996069;28;20038;-72
2021/12/15 06:30:55;;;;;;;90.13;47.85;;;9.90;99.90;;;;;;4995868;28;20048;-72
2021/12/15 06:33:22;;;;;;;88.32;48.03;;;9.90;99.90;;;;;;4995566;28;20092;-73
2021/12/15 06:35:58;;;;;;;81.88;46.65;;;9.90;99.90;;;;;;4999683;28;20044;-73
2021/12/15 06:38:27;;;;;;;93.30;46.88;;;9.90;99.90;;;;;;4999765;28;20095;-73
2021/12/15 06:40:53;;;;;;;84.28;47.55;;;9.90;99.90;;;;;;4983162;28;20037;-73
2021/12/15 06:43:19;;;;;;;81.72;45.22;;;9.90;99.90;;;;;;4999368;28;20042;-73
2021/12/15 06:59:28;;;;;;;77.22;43.03;;;9.90;99.90;;;;;;4999168;28;20511;-73
2021/12/15 07:01:54;;;;;;;79.40;44.35;;;9.90;99.90;;;;;;4999037;28;20053;-73
2021/12/15 07:04:21;;;;;;;83.60;46.90;;;9.90;99.90;;;;;;5016512;28;20038;-73
2021/12/15 07:06:49;;;;;;;83.35;44.92;;;9.90;99.90;;;;;;4998873;28;20049;-73
2021/12/15 07:09:14;;;;;;;77.65;44.22;;;10.00;99.90;;;;;;4999055;28;20104;-73
2021/12/15 07:11:41;;;;;;;79.25;44.13;;;9.90;99.90;;;;;;4999034;28;20494;-73
2021/12/15 07:14:07;;;;;;;75.63;41.83;;;9.90;99.90;;;;;;4998623;28;20103;-73
2021/12/15 07:16:34;;;;;;;76.90;43.67;;;9.90;99.90;;;;;;4998910;28;20045;-73
2021/12/15 07:19:30;;;;;;;73.55;42.05;;;10.00;99.90;;;;;;4998736;28;20548;-73
2021/12/15 07:22:05;;;;;;;78.68;42.30;;;10.00;99.90;;;;;;4998094;28;20411;-73
2021/12/15 07:24:32;;;;;;;80.22;42.85;;;10.00;99.90;;;;;;4998518;28;20085;-73
2021/12/15 07:26:59;;;;;;;76.95;41.83;;;9.90;99.90;;;;;;4998779;28;20414;-73
2021/12/15 07:29:26;;;;;;;84.53;42.20;;;10.00;99.90;;;;;;4981842;28;20085;-73
2021/12/15 07:31:51;;;;;;;71.32;41.20;;;10.00;99.90;;;;;;4998717;28;20092;-72
2021/12/15 07:34:17;;;;;;;69.55;39.63;;;10.00;99.90;;;;;;4998298;28;20486;-72
2021/12/15 07:36:43;;;;;;;77.03;41.47;;;10.00;99.90;;;;;;4998296;28;20049;-73
2021/12/15 07:39:11;;;;;;;73.38;40.95;;;10.00;99.90;;;;;;4998635;28;20038;-73
2021/12/15 07:41:48;;;;;;;65.90;38.40;;;10.00;99.90;;;;;;4998563;28;20081;-72
2021/12/15 07:44:15;;;;;;;68.43;37.60;;;10.00;99.90;;;;;;4998272;28;20042;-73
2021/12/15 07:46:42;;;;;;;67.22;38.72;;;10.00;99.90;;;;;;4997305;28;20503;-73
2021/12/15 07:49:08;;;;;;;62.13;35.63;;;10.00;99.90;;;;;;4998129;28;20541;-73
2021/12/15 07:51:34;;;;;;;57.80;34.42;;;10.00;99.90;;;;;;4998091;28;20153;-73
2021/12/15 07:53:59;;;;;;;63.70;35.78;;;10.00;99.90;;;;;;4997978;28;20045;-73
2021/12/15 07:56:25;;;;;;;59.63;35.33;;;10.10;99.90;;;;;;4997999;28;20037;-73
2021/12/15 07:58:51;;;;;;;64.03;36.45;;;10.00;99.90;;;;;;4997961;28;20037;-73
2021/12/15 08:01:18;;;;;;;63.30;34.55;;;10.00;99.90;;;;;;4997917;28;20049;-72
2021/12/15 08:03:44;;;;;;;57.40;35.00;;;10.00;99.90;;;;;;4997932;28;20088;-72
2021/12/15 08:06:10;;;;;;;58.83;33.70;;;10.10;99.90;;;;;;4998308;28;20037;-72
2021/12/15 08:08:36;;;;;;;62.47;34.97;;;10.00;99.90;;;;;;4997740;28;20451;-73
2021/12/15 08:11:03;;;;;;;62.50;35.42;;;10.00;99.90;;;;;;4997784;28;20125;-72
2021/12/15 08:13:31;;;;;;;63.60;34.85;;;10.00;99.90;;;;;;4997733;28;20042;-72
2021/12/15 08:15:57;;;;;;;62.55;35.42;;;10.00;99.90;;;;;;4997419;28;20121;-72
2021/12/15 08:18:24;;;;;;;62.47;35.85;;;10.00;99.90;;;;;;4997885;28;20037;-73
2021/12/15 08:20:50;;;;;;;63.85;36.28;;;10.00;99.90;;;;;;4997737;28;20041;-73
2021/12/15 08:23:17;;;;;;;65.68;36.08;;;10.00;99.90;;;;;;4981292;28;20041;-73
2021/12/15 08:25:43;;;;;;;61.88;35.45;;;10.00;99.90;;;;;;4997443;28;20042;-73
2021/12/15 08:28:10;;;;;;;64.75;36.58;;;10.00;99.90;;;;;;4997357;28;20049;-73
2021/12/15 08:30:38;;;;;;;60.35;35.42;;;10.00;99.90;;;;;;4997352;28;20046;-73
2021/12/15 08:33:06;;;;;;;60.40;35.42;;;10.00;99.90;;;;;;4997363;28;20049;-73
2021/12/15 08:35:39;;;;;;;63.25;36.78;;;10.00;99.90;;;;;;4981037;28;20042;-72
2021/12/15 08:38:06;;;;;;;62.75;35.53;;;10.00;99.90;;;;;;4997371;28;20046;-73
2021/12/15 08:40:33;;;;;;;59.50;35.45;;;10.00;99.90;;;;;;4997328;28;20041;-72
2021/12/15 08:43:00;;;;;;;64.82;35.60;;;10.00;99.90;;;;;;4997416;28;20042;-73
2021/12/15 08:45:27;;;;;;;64.82;37.53;;;10.00;99.90;;;;;;4997033;28;20038;-73
2021/12/15 08:47:55;;;;;;;64.45;36.13;;;10.00;99.90;;;;;;4997165;28;20131;-73
2021/12/15 08:50:26;;;;;;;64.63;36.05;;;10.00;99.90;;;;;;4996931;28;20045;-73
2021/12/15 08:52:52;;;;;;;64.65;37.17;;;10.00;99.90;;;;;;4996998;28;20037;-73
2021/12/15 08:55:18;;;;;;;62.15;36.28;;;10.00;99.90;;;;;;4997103;28;20037;-73
2021/12/15 08:57:48;;;;;;;65.15;36.38;;;10.00;99.90;;;;;;4996620;28;20439;-73
2021/12/15 09:00:17;;;;;;;54.75;34.28;;;10.00;99.90;;;;;;4996882;28;20038;-73
2021/12/15 09:02:43;;;;;;;57.20;34.20;;;10.10;99.90;;;;;;4996792;28;20038;-73
2021/12/15 09:05:09;;;;;;;59.13;35.15;;;10.10;99.90;;;;;;4996677;28;20053;-73
2021/12/15 09:07:34;;;;;;;66.85;37.50;;;10.10;99.90;;;;;;4996631;28;20042;-73
2021/12/15 09:10:00;;;;;;;64.45;36.55;;;10.10;99.90;;;;;;4996667;28;20046;-73
2021/12/15 09:12:25;;;;;;;62.03;35.33;;;10.10;99.90;;;;;;4996871;28;20073;-73
2021/12/15 09:14:51;;;;;;;60.20;35.03;;;10.10;99.90;;;;;;4980449;28;20054;-72
2021/12/15 09:17:17;;;;;;;54.00;34.20;;;10.10;99.90;;;;;;4996394;28;20474;-71
2021/12/15 09:19:42;;;;;;;61.45;34.75;;;10.10;99.90;;;;;;4996465;28;20073;-72
2021/12/15 09:22:09;;;;;;;56.40;33.83;;;10.10;99.90;;;;;;4996664;28;20085;-72
2021/12/15 09:24:34;;;;;;;59.17;34.13;;;10.10;99.90;;;;;;4996294;28;20073;-72
2021/12/15 09:27:00;;;;;;;57.80;32.55;;;10.20;99.90;;;;;;4996353;28;20038;-72
2021/12/15 09:29:26;;;;;;;54.67;31.77;;;10.20;99.90;;;;;;4996337;28;20045;-72
2021/12/15 09:31:53;;;;;;;58.05;33.45;;;10.30;99.90;;;;;;4996241;28;20045;-72
2021/12/15 09:34:19;;;;;;;50.35;30.63;;;10.30;99.90;;;;;;4996256;28;20042;-71
2021/12/15 09:36:48;;;;;;;51.50;30.95;;;10.30;99.90;;;;;;4996081;28;20049;-71
2021/12/15 09:39:16;;;;;;;52.10;31.48;;;10.30;99.90;;;;;;4996308;28;20045;-71
2021/12/15 09:41:43;;;;;;;49.53;29.33;;;10.30;99.90;;;;;;4979991;28;20034;-72
2021/12/15 09:44:14;;;;;;;54.53;30.50;;;10.40;99.90;;;;;;4995987;28;20041;-72
2021/12/15 09:57:46;;;;;;;51.47;30.50;;;10.40;99.90;;;;;;4995992;28;20041;-72
2021/12/15 10:03:02;;;;;;;52.20;30.75;;;10.40;99.90;;;;;;4995893;28;20132;-72
2021/12/15 10:19:35;;;;;;;50.07;29.23;;;10.50;99.90;;;;;;4995910;28;20053;-72
2021/12/15 10:22:08;;;;;;;46.75;28.55;;;10.50;99.90;;;;;;4995688;28;20046;-72
2021/12/15 10:24:46;;;;;;;43.92;28.55;;;10.50;99.90;;;;;;4995845;28;20073;-72
2021/12/15 10:27:14;;;;;;;48.65;28.13;;;10.50;99.90;;;;;;4995870;28;20049;-71
2021/12/15 10:30:22;;;;;;;45.92;27.33;;;10.50;99.90;;;;;;4995874;28;20111;-71
2021/12/15 10:32:52;;;;;;;43.63;26.38;;;10.50;99.90;;;;;;4979211;28;20576;-72
2021/12/15 10:35:35;;;;;;;50.67;26.70;;;10.50;99.90;;;;;;4995523;28;20041;-72
2021/12/15 10:38:16;;;;;;;44.75;26.25;;;10.60;99.90;;;;;;4995476;28;20041;-72
2021/12/15 10:40:57;;;;;;;43.78;26.13;;;10.60;99.90;;;;;;4995788;28;20111;-71
2021/12/15 10:43:36;;;;;;;40.95;25.55;;;10.60;99.90;;;;;;4995539;28;20038;-72
2021/12/15 10:46:10;;;;;;;41.60;25.70;;;10.60;99.90;;;;;;4995691;28;20045;-72
2021/12/15 10:48:44;;;;;;;38.75;24.50;;;10.60;99.90;;;;;;4995892;28;20143;-72
2021/12/15 10:51:32;;;;;;;42.72;24.83;;;10.70;99.90;;;;;;5011709;28;20038;-71
2021/12/15 10:54:09;;;;;;;35.42;22.35;;;10.80;99.90;;;;;;4995403;28;20042;-71
2021/12/15 10:56:39;;;;;;;36.05;23.08;;;10.80;99.90;;;;;;4995291;28;20050;-71
2021/12/15 10:59:13;;;;;;;37.72;22.52;;;11.00;99.90;;;;;;4995735;28;20380;-71
2021/12/15 11:01:44;;;;;;;34.03;20.60;;;11.20;99.90;;;;;;4995559;28;20499;-71
2021/12/15 11:04:24;;;;;;;32.22;19.10;;;11.30;99.90;;;;;;4995715;28;20080;-71
2021/12/15 11:07:14;;;;;;;33.20;19.67;;;11.20;99.90;;;;;;4995264;28;20570;-72
2021/12/15 11:10:04;;;;;;;33.70;19.70;;;11.10;99.90;;;;;;4995327;28;20049;-71
2021/12/15 11:12:50;;;;;;;30.08;18.70;;;11.00;99.90;;;;;;4995229;28;20406;-72
2021/12/15 11:15:27;;;;;;;30.45;18.50;;;11.00;99.90;;;;;;4978821;28;20050;-71
2021/12/15 11:17:58;;;;;;;36.97;18.00;;;10.90;99.90;;;;;;4995116;28;20038;-71
2021/12/15 11:20:24;;;;;;;28.60;18.67;;;10.90;99.90;;;;;;4995412;28;20038;-72
2021/12/15 11:23:09;;;;;;;30.92;16.38;;;10.90;99.90;;;;;;4998666;28;20045;-71
2021/12/15 11:25:52;;;;;;;32.63;18.13;;;10.90;99.90;;;;;;4998542;28;20077;-71
2021/12/15 11:28:26;;;;;;;24.80;15.57;;;10.90;99.90;;;;;;4998834;28;20081;-71
2021/12/15 11:31:06;;;;;;;26.20;16.02;;;10.90;99.90;;;;;;4998547;28;20095;-71
2021/12/15 11:33:48;;;;;;;25.52;16.27;;;10.90;99.90;;;;;;4982449;28;20048;-71
2021/12/15 11:36:34;;;;;;;29.90;16.73;;;10.90;99.90;;;;;;4998392;28;20041;-71
2021/12/15 11:39:16;;;;;;;28.25;16.25;;;10.90;99.90;;;;;;4998997;28;20371;-71
2021/12/15 11:41:50;;;;;;;29.73;16.52;;;10.90;99.90;;;;;;4998588;28;20042;-71
2021/12/15 11:44:22;;;;;;;21.27;11.93;;;11.00;99.90;;;;;;4998267;28;20034;-71
2021/12/15 11:47:01;;;;;;;18.40;12.15;;;10.90;99.90;;;;;;4998291;28;20089;-72
2021/12/15 11:49:31;;;;;;;23.20;13.82;;;11.00;99.90;;;;;;4981912;28;20100;-71
2021/12/15 11:52:10;;;;;;;29.27;16.02;;;11.00;99.90;;;;;;4998162;28;20129;-71
2021/12/15 11:54:39;;;;;;;27.23;15.65;;;11.00;99.90;;;;;;4998029;28;20499;-71
2021/12/15 11:57:19;;;;;;;25.20;16.83;;;10.90;99.90;;;;;;4997998;28;20061;-71
2021/12/15 11:59:49;;;;;;;27.10;17.42;;;10.90;99.90;;;;;;4998690;28;20063;-71
2021/12/15 12:02:27;;;;;;;32.72;18.48;;;10.80;99.90;;;;;;4997998;28;20045;-71
2021/12/15 12:04:56;;;;;;;28.88;17.15;;;10.80;99.90;;;;;;4998164;28;20116;-71
2021/12/15 12:07:29;;;;;;;32.30;17.65;;;10.80;99.90;;;;;;4997980;28;20046;-72
2021/12/15 12:10:00;;;;;;;31.00;16.85;;;10.80;99.90;;;;;;5014357;28;20038;-71
2021/12/15 12:12:32;;;;;;;28.90;17.13;;;10.80;99.90;;;;;;4998090;28;20038;-72
2021/12/15 12:14:58;;;;;;;26.73;15.70;;;10.80;99.90;;;;;;4997584;28;20486;-71
2021/12/15 12:17:26;;;;;;;27.83;15.30;;;10.80;99.90;;;;;;4997645;28;20064;-71
2021/12/15 12:19:56;;;;;;;25.45;14.70;;;10.90;99.90;;;;;;4997611;28;20125;-71
2021/12/15 12:22:25;;;;;;;24.55;13.60;;;10.90;99.90;;;;;;4997679;28;20049;-71
2021/12/15 12:24:54;;;;;;;23.77;12.38;;;11.00;99.90;;;;;;4997450;28;20073;-71
2021/12/15 12:27:25;;;;;;;20.10;11.15;;;11.00;99.90;;;;;;4997495;28;20049;-71
2021/12/15 12:29:53;;;;;;;20.95;12.02;;;11.00;99.90;;;;;;4998182;28;20045;-71
2021/12/15 12:32:20;;;;;;;20.65;11.73;;;11.00;99.90;;;;;;4997332;28;20383;-71
2021/12/15 12:34:45;;;;;;;21.38;11.93;;;11.00;99.90;;;;;;4997277;28;20044;-70
2021/12/15 12:37:14;;;;;;;19.95;10.55;;;11.00;99.90;;;;;;4997231;28;20046;-71
2021/12/15 12:39:40;;;;;;;20.20;11.38;;;11.10;99.90;;;;;;5013529;28;20038;-71
2021/12/15 12:42:07;;;;;;;20.42;10.15;;;11.10;99.90;;;;;;4997142;28;20124;-72
2021/12/15 12:44:42;;;;;;;18.55;9.80;;;11.10;99.90;;;;;;4997353;28;20068;-71
2021/12/15 12:47:27;;;;;;;17.48;9.65;;;11.10;99.90;;;;;;4981252;28;20050;-71
2021/12/15 12:50:21;;;;;;;21.85;10.00;;;11.10;99.90;;;;;;4997334;28;20045;-71
2021/12/15 13:01:06;;;;;;;15.43;8.45;;;11.00;99.90;;;;;;4996971;28;20046;-71
2021/12/15 13:03:40;;;;;;;15.27;8.13;;;11.00;99.90;;;;;;4996885;28;20038;-73
2021/12/15 13:06:14;;;;;;;15.20;5.32;;;11.00;99.90;;;;;;4996769;28;20045;-72
2021/12/15 13:08:47;;;;;;;11.98;5.40;;;11.10;99.90;;;;;;4996695;28;20495;-72
2021/12/15 13:11:23;;;;;;;17.05;5.65;;;11.00;99.90;;;;;;4996977;28;20134;-73
2021/12/15 13:13:58;;;;;;;17.08;5.63;;;10.90;99.90;;;;;;4996389;28;20490;-73
2021/12/15 13:16:53;;;;;;;12.88;5.32;;;10.90;99.90;;;;;;4996567;28;20121;-71
2021/12/15 13:19:31;;;;;;;12.63;5.45;;;10.90;99.90;;;;;;4996561;28;20042;-71
2021/12/15 13:30:46;;;;;;;13.20;5.03;;;10.80;99.90;;;;;;4996590;28;20108;-71
2021/12/15 13:33:36;;;;;;;11.95;5.53;;;10.80;99.90;;;;;;4996321;28;20387;-70
2021/12/15 13:36:20;;;;;;;14.50;5.22;;;10.80;99.90;;;;;;5012303;28;20103;-70
2021/12/15 13:38:56;;;;;;;13.63;4.88;;;10.80;99.90;;;;;;4996411;28;20046;-70
2021/12/15 13:41:39;;;;;;;12.38;5.35;;;10.80;99.90;;;;;;4996195;28;20045;-70
2021/12/15 13:44:18;;;;;;;11.15;5.00;;;10.80;99.90;;;;;;4995424;28;20041;-70
2021/12/15 13:46:52;;;;;;;14.18;5.32;;;10.70;99.90;;;;;;4996344;28;20498;-70
2021/12/15 13:49:28;;;;;;;12.63;5.72;;;10.70;99.90;;;;;;4996081;28;20056;-70
2021/12/15 13:51:54;;;;;;;13.80;5.43;;;10.70;99.90;;;;;;4996287;28;20469;-70
2021/12/15 13:54:35;;;;;;;14.57;5.43;;;10.70;99.90;;;;;;4979797;28;20110;-70
2021/12/15 13:57:03;;;;;;;15.23;6.15;;;10.70;99.90;;;;;;4995854;28;20038;-70
2021/12/15 13:59:32;;;;;;;14.63;5.60;;;10.70;99.90;;;;;;4996139;28;20195;-70
2021/12/15 14:02:18;;;;;;;14.63;5.45;;;10.70;99.90;;;;;;4995842;28;20053;-70
2021/12/15 14:04:57;;;;;;;10.95;5.45;;;10.70;99.90;;;;;;4995743;28;20037;-69
2021/12/15 14:07:28;;;;;;;10.60;5.20;;;10.70;99.90;;;;;;4996130;28;20037;-70
2021/12/15 14:10:12;;;;;;;14.32;5.13;;;10.70;99.90;;;;;;4995776;28;20045;-69
2021/12/15 14:12:47;;;;;;;14.77;5.28;;;10.70;99.90;;;;;;4979876;28;20116;-69
2021/12/15 14:15:13;;;;;;;13.25;5.25;;;10.70;99.90;;;;;;4995534;28;20490;-69